createdAt,value
2023-01-28T18:07:50.755Z,21.00
2023-01-28T18:10:18.171Z,26.00
2023-01-28T18:12:45.088Z,25.00
2023-01-28T18:15:12.254Z,24.33
2023-01-28T18:17:39.208Z,14.33
2023-01-28T18:20:06.814Z,19.00
2023-01-28T18:22:34.027Z,16.00
2023-01-28T18:25:01.011Z,15.00
2023-01-28T18:27:27.924Z,15.67
2023-01-28T18:29:55.123Z,15.00
2023-01-28T18:32:22.024Z,11.00
2023-01-28T18:35:27.296Z,11.00
2023-01-28T18:38:09.536Z,7.00
2023-01-28T18:41:07.889Z,6.33
2023-01-28T18:43:57.754Z,5.00
2023-01-28T18:46:42.101Z,15.00
2023-01-28T18:49:30.146Z,22.33
2023-01-28T18:51:57.038Z,22.00
2023-01-28T18:54:25.050Z,20.00
2023-01-28T18:56:52.121Z,19.00
2023-01-28T18:59:19.293Z,21.00
2023-01-28T19:01:48.150Z,15.33
2023-01-28T19:04:15.925Z,20.00
2023-01-28T19:06:43.147Z,20.33
2023-01-28T19:09:11.847Z,23.00
2023-01-28T19:11:41.046Z,22.00
2023-01-28T19:14:09.344Z,14.00
2023-01-28T19:16:37.519Z,4.00
2023-01-28T19:19:04.933Z,16.00
2023-01-28T19:21:32.868Z,16.00
2023-01-28T19:24:14.900Z,12.00
2023-01-28T19:26:44.938Z,17.33
2023-01-28T19:29:15.638Z,14.33
2023-01-28T19:31:44.602Z,11.00
2023-01-28T19:34:11.811Z,17.33
2023-01-28T19:36:39.142Z,18.00
2023-01-28T19:39:08.415Z,25.00
2023-01-28T19:41:36.732Z,23.00
2023-01-28T19:44:04.469Z,21.33
2023-01-28T19:46:31.868Z,15.00
2023-01-28T19:48:58.861Z,16.67
2023-01-28T19:51:26.054Z,15.00
2023-01-28T19:53:54.327Z,20.33
2023-01-28T19:56:23.587Z,16.00
2023-01-28T19:58:50.575Z,15.33
2023-01-28T20:01:20.241Z,9.67
2023-01-28T20:03:52.891Z,12.67
2023-01-28T20:06:19.988Z,11.00
2023-01-28T20:08:52.133Z,18.00
2023-01-28T20:11:19.681Z,27.33
2023-01-28T20:13:47.729Z,25.00
2023-01-28T20:16:19.524Z,22.33
2023-01-28T20:18:52.298Z,29.33
2023-01-28T20:21:20.138Z,30.33
2023-01-28T20:23:48.449Z,28.33
2023-01-28T20:26:16.091Z,28.33
2023-01-28T20:28:43.015Z,25.00
2023-01-28T20:31:11.392Z,32.67
2023-01-28T20:33:38.575Z,30.67
2023-01-28T20:36:10.234Z,27.67
2023-01-28T20:38:39.333Z,26.00
2023-01-28T20:41:10.557Z,22.33
2023-01-28T20:43:39.619Z,19.67
2023-01-28T20:46:09.216Z,21.33
2023-01-28T20:48:36.157Z,19.33
2023-01-28T20:51:11.477Z,18.33
2023-01-28T20:53:38.869Z,15.00
2023-01-28T20:56:06.243Z,17.00
2023-01-28T20:58:34.880Z,11.00
2023-01-28T21:01:02.194Z,13.33
2023-01-28T21:03:29.236Z,14.00
2023-01-28T21:05:56.167Z,12.00
2023-01-28T21:08:23.642Z,15.00
2023-01-28T21:10:50.701Z,16.67
2023-01-28T21:13:17.801Z,13.33
2023-01-28T21:15:52.872Z,14.00
2023-01-28T21:18:19.828Z,15.00
2023-01-28T21:20:46.937Z,14.33
2023-01-28T21:23:15.192Z,12.67
2023-01-28T21:25:43.779Z,13.33
2023-01-28T21:28:11.336Z,15.67
2023-01-28T21:30:38.970Z,12.00
2023-01-28T21:33:06.685Z,16.33
2023-01-28T21:35:41.127Z,18.00
2023-01-28T21:38:08.330Z,16.67
2023-01-28T21:40:36.101Z,13.33
2023-01-28T21:43:03.484Z,15.67
2023-01-28T21:45:30.645Z,14.33
2023-01-28T21:47:57.724Z,11.00
2023-01-28T21:50:24.648Z,12.67
2023-01-28T21:52:51.905Z,12.00
2023-01-28T21:55:19.746Z,16.00
2023-01-28T21:57:46.643Z,12.00
2023-01-28T22:00:14.140Z,14.00
2023-01-28T22:02:41.448Z,14.67
2023-01-28T22:05:08.634Z,8.00
2023-01-28T22:07:35.598Z,10.33
2023-01-28T22:10:02.562Z,12.00
2023-01-28T22:12:29.497Z,16.00
2023-01-28T22:14:56.710Z,12.00
2023-01-28T22:17:23.661Z,14.00
2023-01-28T22:19:50.615Z,12.00
2023-01-28T22:22:18.391Z,12.00
2023-01-28T22:24:45.388Z,8.00
2023-01-28T22:27:12.327Z,15.67
2023-01-28T22:29:39.246Z,11.33
2023-01-28T22:32:06.200Z,7.33
2023-01-28T22:34:33.209Z,10.00
2023-01-28T22:37:00.085Z,9.00
2023-01-28T22:39:26.986Z,9.67
2023-01-28T22:41:53.880Z,9.00
2023-01-28T22:44:20.811Z,9.67
2023-01-28T22:46:48.405Z,10.33
2023-01-28T22:49:15.426Z,9.33
2023-01-28T22:51:42.660Z,9.00
2023-01-28T22:54:11.756Z,10.00
2023-01-28T22:56:39.063Z,7.33
2023-01-28T22:59:06.323Z,8.67
2023-01-28T23:01:33.550Z,8.00
2023-01-28T23:04:00.557Z,8.00
2023-01-28T23:06:27.999Z,8.33
2023-01-28T23:08:56.563Z,8.67
2023-01-28T23:11:28.299Z,7.00
2023-01-28T23:14:20.250Z,8.33
2023-01-28T23:17:06.071Z,8.00
2023-01-28T23:19:52.251Z,7.33
2023-01-28T23:22:43.874Z,8.00
2023-01-28T23:25:11.715Z,7.00
2023-01-28T23:27:38.761Z,3.33
2023-01-28T23:30:10.367Z,5.00
2023-01-28T23:32:53.138Z,10.00
2023-01-28T23:35:20.389Z,3.33
2023-01-28T23:37:48.068Z,8.00
2023-01-28T23:40:16.462Z,8.00
2023-01-28T23:42:48.351Z,8.00
2023-01-28T23:45:15.614Z,10.00
2023-01-28T23:47:42.634Z,15.67
2023-01-28T23:50:10.604Z,15.00
2023-01-28T23:52:37.630Z,11.00
2023-01-28T23:55:05.034Z,12.67
2023-01-28T23:57:32.058Z,10.00
2023-01-28T23:59:58.923Z,18.00
